Alcester, SD

1:15 PM CDT on August 30, 2014 (GMT -0500)
RV south east | Change Station
CLOSE
Current Station
Personal Weather Station
Location: Rock Valley, IA
Elevation: 1309 ft
Nearby Weather Stations

Elev 1309 ft 43.20 °N, 96.29 °W | Updated 6 minutes ago

Mostly Cloudy
Mostly Cloudy
72.1 °F
Feels Like 74 °F
N
5.3
Wind Variable Wind from WSW

Today
High -- | Low -- °F
--% Chance of Precip.
Yesterday
High -- | Low -- °F
Precip. -- in
6:48 AM 8:04 PM
Waxing Crescent, 23% visible
Pressure 29.94 in
Visibility 10.0 miles
Clouds Few 1900 ft
Mostly Cloudy 3100 ft
Heat Index 74 °F
Dew Point 62 °F
Humidity 71%
Rainfall 0.00 in
Snow Depth Not available.
UV 5 out of 12
Pollen 9.00 out of 12
Air Quality Not available.
Flu Activity Not available.
METAR KLRJ 301755Z AUTO 26007KT 220V290 10SM FEW019 BKN031 22/17 A2994 RMK AO2

More Conditions Fewer Conditions

Pressure 29.94 in
Visibility 10.0 miles
Clouds Few 1900 ft
Mostly Cloudy 3100 ft
Heat Index 74 °F
Dew Point 62 °F
Humidity 71%
Rainfall 0.00 in
Snow Depth Not available.
UV 5 out of 12
Pollen 9.00 out of 12
Air Quality Not available.
Flu Activity Not available.
METAR KLRJ 301755Z AUTO 26007KT 220V290 10SM FEW019 BKN031 22/17 A2994 RMK AO2

More Conditions Fewer Conditions

10-Day Weather Forecast

Almanac

Astronomy

Aug. 30, 2014 Rise Set
Actual Time 6:48 AM CDT 8:04 PM CDT
Civil Twilight 6:19 AM CDT 8:33 PM CDT
Nautical Twilight 5:44 AM CDT 9:09 PM CDT
Astronomical Twilight 5:06 AM CDT 9:46 PM CDT
Moon 11:45 AM CDT 10:30 PM CDT
Length of Visible Light 14h 14m
Length of Day
13h 15m
Tomorrow will be 2m 48s shorter.
Waxing Crescent, 23% of the Moon is Illuminated
Today
Waxing Crescent
Sep 2
First Quarter
Sep 8
Full
Sep 15
Last Quarter
Sep 24
New

Today's Extremes

State Highs State Lows

Community

WunderPhotos

Upload Photos

1,748,583 photos uploaded!

WunderBlogs® & News

Nearby

Snow Depth

Station Depth Elevation
Blind Park 0 in 6890 ft

Earthquake Activity

City Distance Mag. Time & Date
No recent earthquake activity has been reported nearby.
Minimum magnitude displayed is 2.5.

Coastal Water Temperatures

Place Temperature
No Stations Reporting

Nearby Weather Stations